• Join FlightAware (Why Join?)
  • Login
  • US Flag 
05:57AM EDT


 

Airport Tracker/Info


-or-


 

Live Flight TrackerFlight Track Log ✈ SWA1366 ✈ 27-Sep-2013 ✈ KSNA - KSFO

Flight Track Log - Related Links

Times and Time Zones

All times are in EDT time to prevent confusion due to time zone crossing. See the SWA1366 flight status page for this flight to view local times or setup timezone preferences in your user account.

Time Position Orientation Groundspeed Altitude Reporting Facility
EDT Latitude Longitude Course Direction KTS MPH feet Rate Location/Type
10:52PM 33.6500 -117.8833 320° Northwest 149 171 2,000  Level Southern California TRACON
10:53PM 33.6000 -117.9000 196° South 168 193 3,600 2,220 Climbing Southern California TRACON
10:54PM 33.5308 -117.9289 199° South 239 275 7,200 3,180 Climbing Los Angeles Center
10:55PM 33.4472 -117.9975 214° Southwest 293 337 11,200 3,780 Climbing Los Angeles Center
10:56PM 33.3778 -118.0836 226° Southwest 354 407 15,100 2,880 Climbing Los Angeles Center
10:57PM 34.1891 -118.4204 320° Northwest  Level Estimated
10:57PM 33.3764 -118.1958 269° West 347 399 17,200  Level Los Angeles Center
10:58PM 33.4253 -118.3022 299° West 366 421 20,300 2,880 Climbing Los Angeles Center
10:59PM 33.4969 -118.3975 312° West 379 436 23,200 2,760 Climbing Los Angeles Center
11:00PM 33.5694 -118.4961 311° West 385 443 26,100 2,580 Climbing Los Angeles Center
11:01PM 33.6461 -118.5981 312° West 401 461 28,600 2,280 Climbing Los Angeles Center
11:02PM 33.7236 -118.7025 312° West 414 476 30,900 2,280 Climbing Los Angeles Center
11:03PM 33.8006 -118.8058 312° West 413 475 33,300 2,100 Climbing Los Angeles Center
11:04PM 33.8778 -118.9103 312° West 415 478 35,300 1,260 Climbing Los Angeles Center
11:05PM 33.9692 -119.0328 312° West 410 472 36,000 300 Climbing Los Angeles Center
11:06PM 34.0444 -119.1367 311° West 410 472 36,000  Level Los Angeles Center
11:07PM 34.1189 -119.2386 311° West 407 468 36,000  Level Los Angeles Center
11:08PM 34.2017 -119.3339 316° Northwest 409 471 36,000  Level Los Angeles Center
11:09PM 34.2836 -119.4272 317° Northwest 408 470 36,000  Level Los Angeles Center
11:10PM 34.3664 -119.5208 317° Northwest 407 468 36,000  Level Los Angeles Center
11:11PM 34.4508 -119.6183 316° Northwest 417 480 36,000  Level Los Angeles Center
11:12PM 34.5536 -119.7336 317° Northwest 419 482 36,000  Level Los Angeles Center
11:13PM 34.6275 -119.8172 317° Northwest 419 482 36,000  Level Los Angeles Center
11:14PM 34.7306 -119.9344 317° Northwest 422 486 36,000  Level Los Angeles Center
11:15PM 34.8172 -120.0325 317° Northwest 424 488 36,000  Level Los Angeles Center
11:16PM 34.8986 -120.1269 316° Northwest 420 483 36,000  Level Los Angeles Center
11:18PM 34.9819 -120.2233 317° Northwest 419 482 36,000  Level Los Angeles Center
11:19PM 35.0650 -120.3200 316° Northwest 418 481 36,000  Level Los Angeles Center
11:20PM 35.1481 -120.4164 317° Northwest 417 480 36,000  Level Los Angeles Center
11:21PM 35.2464 -120.5322 316° Northwest 414 476 36,000  Level Los Angeles Center
11:22PM 35.3297 -120.6292 317° Northwest 417 480 36,000  Level Los Angeles Center
11:23PM 35.4186 -120.7194 320° Northwest 418 481 36,000  Level Los Angeles Center
11:24PM 35.5122 -120.8039 324° Northwest 419 482 36,000  Level Los Angeles Center
11:25PM 35.6050 -120.8897 323° Northwest 418 481 36,000  Level Los Angeles Center
11:26PM 35.7106 -120.9869 323° Northwest 414 476 36,000  Level Los Angeles Center
11:27PM 35.8033 -121.0736 323° Northwest 417 480 36,000  Level Los Angeles Center
11:28PM 35.8944 -121.1594 323° Northwest 414 476 36,000  Level Los Angeles Center
11:29PM 36.0069 -121.2611 324° Northwest 413 475 36,000  Level Oakland Center
11:30PM 36.0967 -121.3467 322° Northwest 410 472 36,000  Level Oakland Center
11:31PM 36.1881 -121.4317 323° Northwest 409 471 36,000 -1,320 Level Oakland Center
11:32PM 36.2775 -121.5172 322° Northwest 407 468 33,400 -3,240 Descending Oakland Center
11:33PM 36.3883 -121.6183 324° Northwest 411 473 29,500 -3,180 Descending Oakland Center
11:34PM 36.4750 -121.7047 321° Northwest 402 463 27,000 -2,460 Descending Oakland Center
11:35PM 36.5667 -121.7833 325° Northwest 384 442 24,500 -2,460 Descending Northern Cal TRACON
11:36PM 36.6500 -121.8667 321° Northwest 371 427 22,000 -2,460 Descending Northern Cal TRACON
11:37PM 36.7167 -121.9333 321° Northwest 361 415 19,600 -2,400 Descending Northern Cal TRACON
11:38PM 36.8000 -121.9833 334° Northwest 352 405 17,500 -2,400 Descending Northern Cal TRACON
11:39PM 36.9000 -122.0000 352° North 344 396 14,900 -2,340 Descending Northern Cal TRACON
11:40PM 37.0000 -122.0333 345° North 333 383 12,700 -2,280 Descending Northern Cal TRACON
11:41PM 37.0833 -122.0500 351° North 326 375 10,600 -1,380 Descending Northern Cal TRACON
11:42PM 37.1667 -122.0667 351° North 275 316 10,000 -1,140 Descending Northern Cal TRACON
11:43PM 37.2386 -122.0953 342° North 260 299 8,100 -1,740 Descending Oakland Center
11:44PM 37.3086 -122.1133 348° North 257 296 6,300 -1,140 Descending Oakland Center
11:45PM 37.3719 -122.1292 349° North 236 272 5,800 -840 Descending Oakland Center
11:46PM 37.4239 -122.1450 346° North 203 234 4,700 -960 Descending Oakland Center
11:47PM 37.4839 -122.1611 348° North 191 220 3,900 -960 Descending Oakland Center
11:48PM 37.5294 -122.1883 335° Northwest 186 214 2,800 -1,020 Descending Oakland Center
11:49PM 37.5622 -122.2364 311° West 184 212 1,900 -840 Descending Oakland Center
11:50PM 37.5800 -122.2847 295° West 167 192 1,200 -660 Descending Oakland Center
11:51PM 37.5964 -122.3228 299° West 144 166 600 -540 Descending Oakland Center
11:52PM 37.6136 -122.3594 301° West 129 148 200 -420 Descending Oakland Center
11:54PM 37.6167 -122.3667 322° Northwest  Level FlightAware Approximate
12:01AM 37.6191 -122.3752 322° Northwest  Level Estimated